Flight Track Log - Related Links

Times and Time Zones

All times are in EDT time to prevent confusion due to time zone crossing. See the UAL3851 flight status page for this flight to view local times or setup timezone preferences in your user account.

Time Position Orientation Groundspeed Altitude Reporting Facility
EDT Latitude Longitude Course Direction KTS MPH feet Rate Location/Type
Sat 12:56:57 PM 41.9167 -87.9000 169° South 196 226 3,400  Level Chicago TRACON
Sat 12:57:39 PM 41.8736 -87.9031 183° South 217 250 4,500 2,434 Climbing Chicago Center
Sat 12:58:43 PM 41.8031 -87.8631 157° South 268 308 7,700 2,619 Climbing Chicago Center
Sat 12:59:00 PM 41.6802 -87.4434 174° South  Level Estimated
Sat 12:59:45 PM 41.7350 -87.8092 149° Southeast 281 323 10,000  Level Chicago Center
Sat 01:00:00 PM 41.6046 -87.3282 169° South  Level Estimated
Sat 01:00:47 PM 41.6597 -87.7531 151° Southeast 302 348 12,400  Level Chicago Center
Sat 01:01:00 PM 41.4916 -87.3543 190° South  Level FlightAware Approximate
Sat 01:01:48 PM 41.5625 -87.6775 150° Southeast 332 382 14,200  Level Chicago Center
Sat 01:02:00 PM 41.4193 -87.2420 169° South  Level Estimated
Sat 01:02:50 PM 41.4719 -87.6083 150° Southeast 366 421 15,500  Level Chicago Center
Sat 01:03:52 PM 41.3725 -87.5653 162° South 392 451 17,000 1,452 Climbing Chicago Center
Sat 01:04:54 PM 41.2644 -87.5447 172° South 388 447 18,500 1,463 Climbing Chicago Center
Sat 01:05:55 PM 41.1556 -87.5222 171° South 395 455 20,000 1,317 Climbing Chicago Center
Sat 01:06:57 PM 41.0458 -87.4919 168° South 402 463 21,200 1,258 Climbing Chicago Center
Sat 01:07:59 PM 40.9314 -87.4600 168° South 415 478 22,600 1,500 Climbing Chicago Center
Sat 01:09:01 PM 40.8158 -87.4314 169° South 422 486 24,300 1,694 Climbing Chicago Center
Sat 01:10:03 PM 40.6797 -87.3953 169° South 419 482 26,100 1,548 Climbing Chicago Center
Sat 01:11:05 PM 40.5667 -87.3653 169° South 417 480 27,500 1,366 Climbing Chicago Center
Sat 01:12:06 PM 40.4539 -87.3311 167° South 420 483 28,900 1,366 Climbing Chicago Center
Sat 01:13:08 PM 40.3572 -87.2472 147° Southeast 435 501 30,300 1,306 Climbing Chicago Center
Sat 01:14:10 PM 40.2597 -87.1561 144° Southeast 434 499 31,600 1,258 Climbing Chicago Center
Sat 01:15:12 PM 40.1400 -87.0453 145° Southeast 440 506 32,900 778 Climbing Chicago Center
Sat 01:15:58 PM 40.0789 -86.9864 144° Southeast 444 511 33,000 56 Climbing Indianapolis Center
Sat 01:17:00 PM 39.9511 -86.8714 145° Southeast 465 535 33,000  Level Indianapolis Center
Sat 01:18:01 PM 39.8350 -86.7767 148° Southeast 490 564 33,000  Level Indianapolis Center
Sat 01:19:03 PM 39.7219 -86.6744 145° Southeast 504 580 33,000  Level Indianapolis Center
Sat 01:20:04 PM 39.6461 -86.5219 123° Southeast 517 595 33,000  Level Indianapolis Center
Sat 01:21:06 PM 39.5775 -86.3647 119° Southeast 516 594 33,000  Level Indianapolis Center
Sat 01:22:07 PM 39.4953 -86.1758 119° Southeast 514 592 33,000  Level Indianapolis Center
Sat 01:23:09 PM 39.4247 -86.0189 120° Southeast 511 588 33,000  Level Indianapolis Center
Sat 01:24:10 PM 39.3558 -85.8617 120° Southeast 507 583 33,000  Level Indianapolis Center
Sat 01:25:12 PM 39.2794 -85.7128 124° Southeast 502 578 33,000  Level Indianapolis Center
Sat 01:26:13 PM 39.1892 -85.5750 130° Southeast 504 580 33,000  Level Indianapolis Center
Sat 01:27:15 PM 39.1008 -85.4375 130° Southeast 502 578 33,000  Level Indianapolis Center
Sat 01:28:16 PM 39.0119 -85.2997 130° Southeast 501 577 33,000  Level Indianapolis Center
Sat 01:29:18 PM 38.9067 -85.1383 130° Southeast 494 568 33,000  Level Indianapolis Center
Sat 01:30:19 PM 38.8192 -85.0017 129° Southeast 497 572 33,000  Level Indianapolis Center
Sat 01:31:20 PM 38.7317 -84.8686 130° Southeast 492 566 33,000  Level Indianapolis Center
Sat 01:32:22 PM 38.6447 -84.7367 130° Southeast 488 562 33,000  Level Indianapolis Center
Sat 01:33:23 PM 38.5581 -84.6019 129° Southeast 484 557 33,000  Level Indianapolis Center
Sat 01:34:25 PM 38.4694 -84.4706 131° Southeast 488 562 33,000  Level Indianapolis Center
Sat 01:35:26 PM 38.3831 -84.3392 130° Southeast 483 556 33,000  Level Indianapolis Center
Sat 01:36:27 PM 38.2811 -84.1850 130° Southeast 487 560 33,000  Level Indianapolis Center
Sat 01:37:29 PM 38.1922 -84.0547 131° Southeast 487 560 33,000  Level Indianapolis Center
Sat 01:38:30 PM 38.1036 -83.9219 130° Southeast 488 562 33,000  Level Indianapolis Center
Sat 01:39:32 PM 38.0142 -83.7919 131° Southeast 488 562 33,000  Level Indianapolis Center
Sat 01:40:33 PM 37.9272 -83.6603 130° Southeast 487 560 33,000  Level Indianapolis Center
Sat 01:41:34 PM 37.8394 -83.5303 131° Southeast 485 558 33,000  Level Indianapolis Center
Sat 01:42:36 PM 37.7511 -83.4039 131° Southeast 481 554 33,000  Level Indianapolis Center
Sat 01:43:37 PM 37.6653 -83.2775 131° Southeast 476 548 33,000  Level Indianapolis Center
Sat 01:44:39 PM 37.5769 -83.1511 131° Southeast 477 549 33,000  Level Indianapolis Center
Sat 01:45:40 PM 37.4758 -83.0044 131° Southeast 474 545 33,000  Level Indianapolis Center
Sat 01:46:42 PM 37.3886 -82.8789 131° Southeast 474 545 33,000 -537 Level Indianapolis Center
Sat 01:47:43 PM 37.3019 -82.7539 131° Southeast 470 541 31,900 -1,770 Descending Indianapolis Center
Sat 01:48:44 PM 37.2136 -82.6272 131° Southeast 474 545 29,400 -2,195 Descending Indianapolis Center
Sat 01:49:46 PM 37.1250 -82.5028 132° Southeast 474 545 27,400 -1,171 Descending Indianapolis Center
Sat 01:50:47 PM 37.0372 -82.3767 131° Southeast 474 545 27,000 -197 Descending Indianapolis Center
Sat 01:51:48 PM 36.9486 -82.2531 132° Southeast 476 548 27,000 -98 Level Indianapolis Center
Sat 01:52:50 PM 36.8625 -82.1311 131° Southeast 468 539 26,800 -387 Descending Indianapolis Center
Sat 01:53:21 PM 36.8203 -82.0681 130° Southeast 470 541 26,400 -923 Descending Atlanta Center
Sat 01:54:21 PM 36.7389 -81.9353 127° Southeast 482 555 25,400 -1,000 Descending Atlanta Center
Sat 01:55:21 PM 36.6594 -81.8106 128° Southeast 477 549 24,400 -700 Descending Atlanta Center
Sat 01:56:21 PM 36.5842 -81.6861 127° Southeast 460 529 24,000 -200 Descending Atlanta Center
Sat 01:57:21 PM 36.5003 -81.5492 127° Southeast 455 524 24,000 -350 Level Atlanta Center
Sat 01:58:21 PM 36.4244 -81.4197 126° Southeast 460 529 23,300 -1,500 Descending Atlanta Center
Sat 01:59:21 PM 36.3489 -81.2961 127° Southeast 455 524 21,000 -2,250 Descending Atlanta Center
Sat 02:00:21 PM 36.2775 -81.1850 129° Southeast 436 502 18,800 -2,050 Descending Atlanta Center
Sat 02:01:21 PM 36.2144 -81.0819 127° Southeast 426 490 16,900 -2,050 Descending Atlanta Center
Sat 02:02:21 PM 36.1656 -80.9550 115° Southeast 420 483 14,700 -2,350 Descending Atlanta Center
Sat 02:03:21 PM 36.1517 -80.8167 97° East 402 463 12,200 -1,850 Descending Atlanta Center
Sat 02:04:21 PM 36.1333 -80.6864 100° East 389 448 11,000 -750 Descending Atlanta Center
Sat 02:05:21 PM 36.1197 -80.5636 98° East 373 429 10,700 -950 Descending Atlanta Center
Sat 02:06:21 PM 36.1058 -80.4511 99° East 350 403 9,100 -1,800 Descending Atlanta Center
Sat 02:07:21 PM 36.0906 -80.3542 101° East 315 362 7,100 -1,050 Descending Atlanta Center
Sat 02:08:21 PM 36.0789 -80.2467 98° East 292 336 7,000 -50 Descending Atlanta Center
Sat 02:09:21 PM 36.0694 -80.1469 97° East 292 336 7,000 -950 Level Atlanta Center
Sat 02:10:21 PM 36.1153 -80.0778 51° Northeast 241 277 5,100 -1,500 Descending Atlanta Center
Sat 02:11:21 PM 36.1694 -80.0136 44° Northeast 246 283 4,000 -1,100 Descending Atlanta Center

Login

Don't have an account? Register now (free) for customized features, flight alerts, and more!